createdAt,value
2023-05-14T00:01:10.761Z,6.00
2023-05-14T00:06:12.291Z,6.03
2023-05-14T00:11:13.803Z,6.10
2023-05-14T00:16:16.016Z,6.03
2023-05-14T00:21:17.592Z,5.97
2023-05-14T00:26:20.225Z,5.70
2023-05-14T00:31:22.124Z,6.22
2023-05-14T00:36:23.726Z,6.13
2023-05-14T00:41:25.511Z,6.25
2023-05-14T00:46:27.643Z,6.28
2023-05-14T00:51:29.535Z,6.50
2023-05-14T00:56:31.700Z,6.35
2023-05-14T01:01:33.565Z,5.90
2023-05-14T01:06:53.796Z,6.05
2023-05-14T01:12:05.905Z,5.97
2023-05-14T01:17:10.728Z,5.85
2023-05-14T01:22:12.720Z,5.38
2023-05-14T01:27:27.800Z,5.50
2023-05-14T01:32:30.965Z,5.18
2023-05-14T01:37:32.923Z,5.43
2023-05-14T01:42:34.894Z,5.53
2023-05-14T01:47:36.596Z,5.30
2023-05-14T01:52:38.178Z,5.28
2023-05-14T01:57:39.721Z,5.03
2023-05-14T02:02:41.406Z,5.95
2023-05-14T02:07:45.825Z,5.38
2023-05-14T02:12:47.316Z,5.22
2023-05-14T02:17:48.847Z,5.43
2023-05-14T02:22:50.479Z,5.50
2023-05-14T02:27:52.022Z,5.80
2023-05-14T02:32:53.616Z,5.57
2023-05-14T02:37:56.215Z,5.50
2023-05-14T02:42:57.871Z,6.22
2023-05-14T02:47:59.441Z,5.93
2023-05-14T02:53:01.782Z,6.00
2023-05-14T02:58:03.476Z,6.07
2023-05-14T03:03:05.088Z,5.53
2023-05-14T03:08:07.397Z,6.40
2023-05-14T03:13:08.990Z,7.05
2023-05-14T03:18:10.641Z,7.30
2023-05-14T03:23:12.547Z,7.07
2023-05-14T03:28:14.134Z,6.70
2023-05-14T03:33:15.781Z,6.20
2023-05-14T03:38:17.549Z,6.78
2023-05-14T03:43:21.566Z,7.63
2023-05-14T03:48:24.029Z,7.63
2023-05-14T03:53:25.619Z,6.65
2023-05-14T03:58:27.124Z,7.00
2023-05-14T04:03:31.316Z,7.40
2023-05-14T04:08:33.131Z,7.25
2023-05-14T04:13:35.296Z,6.38
2023-05-14T04:18:37.007Z,6.15
2023-05-14T04:23:38.621Z,5.88
2023-05-14T04:28:40.535Z,7.15
2023-05-14T04:33:42.265Z,6.68
2023-05-14T04:38:43.761Z,6.45
2023-05-14T04:43:47.241Z,6.75
2023-05-14T04:48:49.189Z,6.45
2023-05-14T04:53:50.731Z,6.63
2023-05-14T04:58:52.313Z,6.55
2023-05-14T05:03:53.949Z,6.50
2023-05-14T05:08:56.148Z,6.68
2023-05-14T05:13:57.673Z,6.47
2023-05-14T05:18:59.343Z,6.78
2023-05-14T05:24:00.932Z,7.00
2023-05-14T05:29:04.110Z,7.25
2023-05-14T05:34:05.985Z,6.55
2023-05-14T05:39:07.576Z,6.43
2023-05-14T05:44:09.356Z,6.47
2023-05-14T05:49:10.960Z,5.95
2023-05-14T05:54:12.456Z,6.60
2023-05-14T05:59:14.031Z,6.05
2023-05-14T06:04:15.624Z,6.22
2023-05-14T06:09:17.155Z,5.60
2023-05-14T06:14:18.704Z,6.55
2023-05-14T06:19:20.346Z,5.65
2023-05-14T06:24:21.920Z,5.75
2023-05-14T06:29:23.479Z,5.57
2023-05-14T06:34:27.639Z,5.63
2023-05-14T06:39:29.379Z,5.93
2023-05-14T06:44:31.642Z,5.10
2023-05-14T06:49:33.254Z,6.03
2023-05-14T06:54:34.808Z,5.30
2023-05-14T06:59:36.386Z,5.72
2023-05-14T07:04:37.977Z,6.00
2023-05-14T07:09:39.576Z,5.35
2023-05-14T07:14:41.111Z,5.72
2023-05-14T07:19:42.648Z,5.50
2023-05-14T07:24:44.247Z,5.95
2023-05-14T07:29:45.829Z,5.95
2023-05-14T07:34:47.408Z,6.07
2023-05-14T07:39:51.373Z,6.57
2023-05-14T07:44:52.919Z,5.93
2023-05-14T07:49:55.595Z,6.10
2023-05-14T07:54:57.186Z,5.93
2023-05-14T07:59:58.814Z,5.90
2023-05-14T08:05:00.551Z,6.45
2023-05-14T08:10:02.356Z,5.78
2023-05-14T08:15:04.455Z,6.20
2023-05-14T08:20:06.915Z,5.50
2023-05-14T08:25:08.665Z,5.85
2023-05-14T08:30:10.651Z,5.70
2023-05-14T08:35:12.283Z,5.10
2023-05-14T08:40:13.988Z,6.03
2023-05-14T08:45:20.646Z,4.80
2023-05-14T08:50:23.527Z,5.20
2023-05-14T08:55:26.730Z,5.05
2023-05-14T09:00:28.431Z,4.47
2023-05-14T09:05:30.055Z,4.68
2023-05-14T09:10:32.497Z,4.20
2023-05-14T09:15:36.344Z,4.25
2023-05-14T09:20:38.645Z,4.00
2023-05-14T09:25:40.287Z,4.28
2023-05-14T09:30:41.830Z,3.88
2023-05-14T09:35:43.506Z,3.95
2023-05-14T09:40:46.436Z,5.30
2023-05-14T09:45:50.102Z,3.33
2023-05-14T09:50:52.289Z,3.95
2023-05-14T09:55:53.819Z,4.22
2023-05-14T10:00:57.779Z,3.00
2023-05-14T10:06:06.437Z,3.80
2023-05-14T10:11:13.651Z,3.35
2023-05-14T10:16:28.584Z,3.63
2023-05-14T10:21:32.125Z,4.07
2023-05-14T10:26:39.113Z,3.35
2023-05-14T10:31:54.069Z,3.30
2023-05-14T10:36:59.768Z,3.22
2023-05-14T10:42:01.311Z,3.45
2023-05-14T10:47:03.384Z,3.58
2023-05-14T10:52:08.954Z,2.67
2023-05-14T10:57:11.712Z,3.03
2023-05-14T11:02:23.197Z,3.03
2023-05-14T11:07:29.611Z,3.20
2023-05-14T11:12:33.669Z,3.70
2023-05-14T11:17:36.660Z,3.30
2023-05-14T11:22:40.047Z,3.92
2023-05-14T11:27:43.269Z,3.78
2023-05-14T11:32:49.328Z,3.50
2023-05-14T11:37:54.986Z,4.25
2023-05-14T11:42:56.645Z,4.25
2023-05-14T11:48:00.431Z,4.10
2023-05-14T11:53:02.057Z,4.30
2023-05-14T11:58:03.704Z,3.67
2023-05-14T12:03:05.700Z,3.85
2023-05-14T12:08:31.750Z,4.03
2023-05-14T12:13:33.445Z,3.50
2023-05-14T12:18:35.724Z,3.85
2023-05-14T12:23:38.823Z,4.10
2023-05-14T12:28:43.466Z,3.72
2023-05-14T12:33:45.787Z,3.90
2023-05-14T12:38:47.432Z,4.00
2023-05-14T12:43:49.719Z,4.32
2023-05-14T12:48:53.203Z,3.92
2023-05-14T12:53:55.084Z,3.95
2023-05-14T12:58:56.742Z,3.67
2023-05-14T13:03:59.631Z,4.20
2023-05-14T13:09:02.429Z,3.67
2023-05-14T13:14:04.010Z,3.40
2023-05-14T13:19:05.663Z,3.53
2023-05-14T13:24:07.529Z,3.72
2023-05-14T13:29:11.464Z,4.15
2023-05-14T13:34:13.197Z,3.53
2023-05-14T13:39:14.833Z,4.32
2023-05-14T13:44:16.834Z,3.47
2023-05-14T13:49:18.787Z,3.45
2023-05-14T13:54:20.351Z,3.45
2023-05-14T13:59:22.042Z,3.58
2023-05-14T14:04:25.654Z,3.47
2023-05-14T14:09:27.171Z,3.03
2023-05-14T14:14:28.704Z,3.17
2023-05-14T14:19:30.228Z,3.20
2023-05-14T14:24:31.768Z,3.80
2023-05-14T14:29:34.396Z,3.17
2023-05-14T14:34:36.147Z,3.38
2023-05-14T14:39:37.845Z,3.65
2023-05-14T14:44:39.381Z,3.45
2023-05-14T14:49:41.017Z,3.50
2023-05-14T14:54:42.555Z,3.40
2023-05-14T14:59:44.309Z,3.00
2023-05-14T15:04:45.976Z,3.40
2023-05-14T15:09:47.604Z,3.45
2023-05-14T15:14:49.167Z,3.50
2023-05-14T15:19:50.730Z,3.17
2023-05-14T15:24:52.338Z,3.47
2023-05-14T15:29:53.876Z,3.20
2023-05-14T15:34:55.648Z,3.25
2023-05-14T15:39:57.173Z,2.78
2023-05-14T15:44:58.723Z,2.72
2023-05-14T15:50:00.690Z,2.80
2023-05-14T15:55:02.604Z,2.78
2023-05-14T16:00:10.399Z,3.15
2023-05-14T16:05:13.689Z,3.03
2023-05-14T16:10:15.648Z,2.50
2023-05-14T16:15:17.279Z,3.05
2023-05-14T16:20:18.868Z,2.85
2023-05-14T16:25:20.456Z,2.90
2023-05-14T16:30:22.167Z,3.00
2023-05-14T16:35:23.792Z,3.30
2023-05-14T16:40:25.747Z,3.03
2023-05-14T16:45:27.496Z,3.30
2023-05-14T16:50:29.141Z,3.30
2023-05-14T16:55:30.816Z,3.42
2023-05-14T17:00:32.402Z,3.00
2023-05-14T17:05:36.576Z,3.22
2023-05-14T17:10:38.149Z,3.30
2023-05-14T17:15:41.877Z,3.20
2023-05-14T17:20:43.480Z,3.47
2023-05-14T17:25:45.114Z,3.53
2023-05-14T17:30:46.725Z,2.95
2023-05-14T17:35:48.779Z,3.42
2023-05-14T17:40:50.391Z,3.22
2023-05-14T17:45:54.560Z,3.20
2023-05-14T17:50:56.406Z,3.05
2023-05-14T17:55:57.942Z,3.05
2023-05-14T18:00:59.511Z,3.28
2023-05-14T18:06:01.175Z,3.03
2023-05-14T18:11:02.736Z,3.08
2023-05-14T18:16:04.672Z,3.15
2023-05-14T18:21:06.281Z,3.08
2023-05-14T18:26:07.894Z,2.67
2023-05-14T18:31:09.652Z,3.15
2023-05-14T18:36:11.622Z,3.28
2023-05-14T18:41:13.184Z,3.20
2023-05-14T18:46:15.869Z,3.03
2023-05-14T18:51:17.421Z,2.50
2023-05-14T18:56:19.162Z,1.83
2023-05-14T19:01:21.380Z,1.63
2023-05-14T19:06:23.007Z,1.83
2023-05-14T19:11:24.654Z,2.00
2023-05-14T19:16:26.664Z,1.88
2023-05-14T19:21:28.281Z,2.00
2023-05-14T19:26:29.850Z,2.03
2023-05-14T19:31:31.465Z,1.90
2023-05-14T19:36:33.134Z,1.85
2023-05-14T19:41:34.622Z,1.95
2023-05-14T19:46:36.241Z,2.40
2023-05-14T19:51:37.877Z,2.30
2023-05-14T19:56:39.447Z,2.80
2023-05-14T20:01:41.422Z,3.03
2023-05-14T20:06:45.402Z,2.58
2023-05-14T20:11:47.006Z,2.47
2023-05-14T20:16:49.049Z,2.75
2023-05-14T20:21:50.614Z,3.25
2023-05-14T20:26:52.322Z,3.70
2023-05-14T20:31:53.892Z,3.20
2023-05-14T20:36:56.015Z,3.20
2023-05-14T20:41:57.534Z,2.83
2023-05-14T20:46:59.254Z,3.78
2023-05-14T20:52:00.862Z,3.33
2023-05-14T20:57:02.423Z,3.53
2023-05-14T21:02:04.555Z,3.50
2023-05-14T21:07:06.842Z,3.15
2023-05-14T21:12:08.765Z,3.80
2023-05-14T21:17:10.784Z,3.45
2023-05-14T21:22:12.825Z,3.47
2023-05-14T21:27:14.373Z,3.83
2023-05-14T21:32:16.041Z,4.15
2023-05-14T21:37:17.636Z,4.85
2023-05-14T21:42:20.983Z,4.28
2023-05-14T21:47:22.684Z,4.15
2023-05-14T21:52:24.239Z,4.30
2023-05-14T21:57:28.047Z,4.55
2023-05-14T22:02:30.239Z,4.40
2023-05-14T22:07:32.820Z,3.97
2023-05-14T22:12:34.374Z,4.38
2023-05-14T22:17:36.072Z,3.75
2023-05-14T22:22:38.004Z,4.20
2023-05-14T22:27:39.539Z,3.72
2023-05-14T22:32:41.124Z,4.00
2023-05-14T22:37:42.689Z,4.40
2023-05-14T22:42:44.274Z,4.20
2023-05-14T22:47:45.966Z,4.18
2023-05-14T22:52:47.503Z,4.15
2023-05-14T22:57:49.105Z,4.70
2023-05-14T23:02:50.874Z,4.40
2023-05-14T23:07:53.334Z,4.20
2023-05-14T23:12:54.970Z,3.60
2023-05-14T23:17:56.684Z,4.97
2023-05-14T23:22:58.325Z,4.25
2023-05-14T23:27:59.903Z,4.82
2023-05-14T23:33:01.692Z,4.13
2023-05-14T23:38:04.547Z,4.05
2023-05-14T23:43:06.066Z,4.32
2023-05-14T23:48:09.780Z,4.28
2023-05-14T23:53:11.303Z,5.25
2023-05-14T23:58:12.898Z,4.93
